Date,TemperatureHighF,TemperatureAvgF,TemperatureLowF,DewpointHighF,DewpointAvgF,DewpointLowF,HumidityHigh,HumidityAvg,HumidityLow,PressureMaxIn,PressureMinIn,WindSpeedMaxMPH,WindSpeedAvgMPH,GustSpeedMaxMPH,PrecipitationSumIn
2013-1-1,35,26,19,25,16,12,76,65,48,0.00,40.00,15,8,29,0.00
2013-1-2,36,26,15,15,12,6,68,56,38,0.00,40.00,11,6,17,0.00
2013-1-3,36,25,12,12,8,4,72,50,35,0.00,40.00,17,10,28,0.00
2013-1-4,42,31,22,16,11,7,61,44,31,0.00,40.00,13,7,22,0.00
2013-1-5,41,28,19,19,14,10,71,57,39,0.00,40.00,13,4,22,0.00
2013-1-6,42,32,18,16,14,11,74,48,33,0.00,40.00,14,6,24,0.00
2013-1-7,44,34,24,22,19,14,71,55,39,0.00,40.00,8,4,13,0.00
2013-1-8,49,40,30,24,20,12,61,45,24,0.00,40.00,20,6,39,0.00
2013-1-9,58,45,28,26,23,18,66,42,25,0.00,40.00,13,5,20,0.00
2013-1-10,51,33,20,29,22,12,83,65,36,0.00,40.00,20,8,29,0.00
2013-1-11,20,12,9,14,9,6,92,87,66,0.00,40.00,14,6,22,0.00
2013-1-12,17,10,3,9,6,1,91,83,64,0.00,40.00,13,4,19,0.00
2013-1-13,19,12,6,8,4,2,82,71,59,0.00,40.00,13,7,20,0.00
2013-1-14,19,14,8,8,3,0,72,62,52,0.00,40.00,16,10,26,0.00
2013-1-15,30,25,19,18,15,8,78,66,60,0.00,40.00,19,11,31,0.00
2013-1-16,41,32,27,23,18,15,62,56,43,0.00,40.00,16,8,25,0.00
2013-1-17,42,34,25,22,18,15,66,52,42,0.00,40.00,18,10,28,0.00
2013-1-18,54,41,33,23,19,17,53,41,25,0.00,40.00,16,7,24,0.00
2013-1-19,40,34,25,27,22,16,87,61,40,0.00,40.00,12,4,16,0.00
2013-1-20,38,23,16,21,16,10,84,73,47,0.00,40.00,21,8,32,0.00
2013-1-21,31,20,12,18,13,8,84,74,58,0.00,40.00,13,4,18,0.00
2013-1-22,48,31,17,23,17,13,85,58,32,0.00,40.00,10,5,16,0.00
2013-1-23,30,23,17,19,15,12,80,72,60,0.00,40.00,13,6,18,0.00
2013-1-24,55,38,20,28,21,16,83,54,32,0.00,40.00,17,4,36,0.00
2013-1-25,52,36,22,30,24,18,85,64,40,0.00,40.00,9,3,14,0.00
2013-1-26,60,44,34,30,27,26,72,54,31,0.00,40.00,9,3,14,0.00
2013-1-27,36,32,30,34,29,25,98,88,71,0.00,40.00,6,1,12,0.00
2013-1-28,40,31,21,28,21,10,94,69,29,0.00,40.00,14,4,27,0.00
2013-1-29,30,21,6,20,12,1,79,65,49,0.00,40.00,18,8,26,0.00
2013-1-30,32,24,10,30,19,3,98,82,63,0.00,40.00,14,6,24,0.00
2013-1-31,30,15,3,24,11,1,93,85,74,0.00,40.00,15,6,21,0.00
2013-2-1,46,38,30,33,26,22,80,63,38,0.00,40.00,17,7,29,0.00
2013-2-2,49,36,24,28,23,19,80,61,40,0.00,40.00,14,7,20,0.00
2013-2-3,54,39,32,26,22,17,64,51,22,0.00,40.00,16,7,24,0.00
2013-2-4,53,41,30,26,24,20,74,50,27,0.00,40.00,18,7,33,0.00
2013-2-5,52,40,30,31,26,24,77,57,39,0.00,40.00,12,5,17,0.00
2013-2-6,51,40,30,27,20,15,76,47,24,0.00,40.00,15,5,28,0.00
2013-2-7,46,34,23,26,22,19,86,61,38,0.00,40.00,6,3,10,0.00
2013-2-8,45,34,26,25,22,20,81,64,37,0.00,40.00,7,3,12,0.00
2013-2-9,44,32,22,29,23,19,94,70,44,0.00,40.00,13,3,19,0.00
2013-2-10,31,26,18,30,21,14,97,81,52,0.00,40.00,16,5,28,0.00
2013-2-11,33,22,8,17,12,6,91,67,47,0.00,40.00,17,9,27,0.00
2013-2-12,42,30,22,20,14,10,64,50,38,0.00,40.00,14,9,24,0.00
2013-2-13,51,36,30,34,23,15,95,60,33,0.00,40.00,24,9,38,0.00
2013-2-14,35,30,27,28,20,14,96,68,44,0.00,40.00,13,7,26,0.00
2013-2-15,44,33,26,30,25,22,95,74,46,0.00,40.00,13,6,22,0.00
2013-2-16,53,39,30,27,23,20,67,54,35,0.00,40.00,14,8,23,0.00
2013-2-17,46,38,32,30,24,18,75,59,33,0.00,40.00,20,8,33,0.00
2013-2-18,36,30,23,28,22,16,96,71,55,0.00,40.00,11,4,17,0.00
2013-2-19,32,23,17,21,17,14,89,77,56,0.00,40.00,11,4,16,0.00
2013-2-20,31,25,20,20,18,16,89,74,58,0.00,40.00,11,4,16,0.00
2013-2-21,40,28,22,28,22,18,94,78,50,0.00,40.00,9,2,14,0.30
2013-2-22,44,33,26,21,18,13,76,56,28,0.00,40.00,15,7,24,0.00
2013-2-23,42,34,29,32,24,16,96,68,38,0.00,40.00,13,4,27,0.00
2013-2-24,43,34,25,26,20,16,75,57,36,0.00,40.00,14,5,22,0.00
2013-2-25,48,36,25,23,18,14,71,49,28,0.00,40.00,19,8,29,0.00
2013-2-26,45,37,31,22,18,13,66,46,28,0.00,40.00,14,6,26,0.00
2013-2-27,48,34,22,21,17,13,78,53,26,0.00,40.00,11,5,18,0.00
2013-2-28,50,38,30,22,17,15,57,43,25,0.00,40.00,14,6,26,0.00
2013-3-1,62,47,30,30,25,18,66,44,29,0.00,40.00,18,8,32,0.00
2013-3-2,62,48,39,31,28,26,64,47,28,0.00,40.00,19,7,27,0.00
2013-3-3,56,38,29,33,28,14,99,69,41,0.00,40.00,30,4,47,0.00
2013-3-4,32,25,17,16,13,10,75,60,40,0.00,40.00,22,12,39,0.00
2013-3-5,32,22,10,22,15,6,88,76,61,0.00,40.00,9,6,13,0.00
2013-3-6,36,28,18,26,22,16,91,78,61,0.00,40.00,10,4,13,0.00
2013-3-7,57,41,28,30,24,10,87,57,17,0.00,40.00,14,5,23,0.00
2013-3-8,48,39,32,30,27,25,79,64,45,0.00,40.00,10,4,15,0.00
2013-3-9,48,37,25,27,21,16,90,57,28,0.00,40.00,20,5,30,0.00
2013-3-10,59,43,22,24,18,15,83,42,19,0.00,40.00,15,6,26,0.00
2013-3-11,49,40,32,27,22,14,61,47,28,0.00,40.00,19,9,33,0.00
2013-3-12,51,36,23,25,22,17,88,60,30,0.00,40.00,11,3,16,0.00
2013-3-13,69,49,33,28,25,22,67,41,19,0.00,40.00,23,6,37,0.00
2013-3-14,69,55,38,33,29,25,66,39,19,0.00,40.00,16,5,30,0.00
2013-3-15,67,52,36,31,27,17,72,40,16,0.00,40.00,23,9,35,0.00
2013-3-16,52,37,26,30,27,23,87,67,41,0.00,40.00,14,7,21,0.00
2013-3-17,43,34,24,31,18,6,91,56,21,0.00,40.00,25,10,43,0.00
2013-3-18,44,30,17,19,11,3,76,48,18,0.00,40.00,23,6,35,0.00
2013-3-19,40,31,25,25,20,17,94,64,41,0.00,40.00,13,6,20,0.00
2013-3-20,61,37,18,24,19,14,85,53,21,0.00,40.00,14,5,19,0.00
2013-3-21,48,41,34,32,18,6,81,42,19,0.00,40.00,17,8,28,0.00
2013-3-22,37,28,21,30,17,8,97,65,33,0.00,40.00,14,5,24,0.00
2013-3-23,36,26,17,16,9,0,83,52,23,0.00,40.00,14,6,24,0.00
2013-3-24,35,24,14,14,10,4,83,58,28,0.00,40.00,15,5,20,0.00
2013-3-25,51,31,12,17,10,6,80,46,18,0.00,40.00,11,4,16,0.00
2013-3-26,56,41,26,23,16,10,63,38,21,0.00,40.00,11,4,24,0.00
2013-3-27,64,45,24,24,19,15,68,39,17,0.00,40.00,12,3,25,0.00
2013-3-28,66,50,31,29,24,21,66,39,21,0.00,40.00,8,3,14,0.00
2013-3-29,63,50,39,40,30,23,81,48,28,0.00,40.00,17,5,33,0.00
2013-3-30,62,51,42,40,28,20,82,44,21,0.00,40.00,18,6,28,0.00
2013-3-31,60,47,32,28,24,21,69,42,25,0.00,40.00,19,8,30,0.00
2013-4-1,59,44,28,30,23,21,79,47,25,0.00,40.00,15,6,22,0.00
2013-4-2,72,50,29,28,23,19,70,39,14,0.00,40.00,12,4,19,0.00
2013-4-3,68,55,45,32,27,22,54,35,21,0.00,40.00,19,7,28,0.00
2013-4-4,58,47,37,32,30,25,70,51,35,0.00,40.00,13,7,19,0.00
2013-4-5,63,53,45,45,35,30,70,50,31,0.00,40.00,16,6,29,0.00
2013-4-6,64,52,39,40,32,26,68,49,24,0.00,40.00,16,6,29,0.00
2013-4-7,63,49,35,42,37,31,96,66,32,0.00,40.00,20,5,32,0.30
2013-4-8,35,24,21,34,23,18,98,94,82,0.00,40.00,22,9,30,0.00
2013-4-9,31,24,19,20,16,11,96,72,48,0.00,40.00,8,4,14,0.00
2013-4-10,49,33,17,29,21,13,85,62,40,0.00,40.00,12,4,20,0.00
2013-4-11,57,47,37,34,30,22,70,52,31,0.00,40.00,20,9,34,0.00
2013-4-12,54,44,36,36,26,17,80,51,24,0.00,40.00,20,8,30,0.00
2013-4-13,53,40,36,38,30,20,91,66,45,0.00,40.00,20,6,38,0.60
2013-4-14,39,33,24,31,22,17,89,65,41,0.00,40.00,19,11,32,0.00
2013-4-15,35,28,22,26,20,17,88,73,48,0.00,40.00,12,4,17,0.00
2013-4-16,32,28,25,25,22,18,91,79,60,0.00,40.00,12,6,21,0.00
2013-4-17,37,28,20,26,22,17,92,77,49,0.00,40.00,16,3,20,0.00
2013-4-18,54,38,20,26,21,14,93,56,23,0.00,40.00,16,7,27,0.00
2013-4-19,58,48,38,44,30,24,89,50,31,0.00,40.00,13,6,22,0.00
2013-4-20,65,51,40,42,34,22,82,56,21,0.00,40.00,18,6,32,0.00
2013-4-21,47,34,28,35,30,26,99,86,58,0.00,40.00,16,9,23,0.00
2013-4-22,38,30,25,30,23,16,99,77,45,0.00,40.00,14,7,21,0.00
2013-4-23,52,36,21,30,19,9,82,53,18,0.00,40.00,16,8,27,0.00
2013-4-24,60,46,34,32,25,17,87,48,21,0.00,40.00,17,7,32,0.00
2013-4-25,69,56,40,27,23,16,54,30,14,0.00,40.00,14,7,26,0.00
2013-4-26,76,61,43,32,27,19,58,30,12,0.00,40.00,14,6,24,0.00
2013-4-27,77,64,45,32,26,20,57,27,12,0.00,40.00,17,8,30,0.00
2013-4-28,70,61,54,39,31,24,51,32,20,0.00,40.00,14,5,24,0.00
2013-4-29,68,53,45,40,32,13,69,46,20,0.00,40.00,23,8,45,0.00
2013-4-30,48,42,34,30,19,13,61,39,26,0.00,40.00,19,11,29,0.00
2013-5-1,52,40,29,23,18,11,71,45,21,0.00,40.00,12,4,20,0.00
2013-5-2,67,50,31,28,20,12,69,36,14,0.00,40.00,13,7,23,0.00
2013-5-3,66,54,42,43,28,20,84,38,20,0.00,40.00,13,7,23,0.00
2013-5-4,61,52,46,45,40,35,87,66,41,0.00,40.00,20,5,28,0.00
2013-5-5,69,55,37,40,33,29,88,48,24,0.00,40.00,14,5,20,0.00
2013-5-6,77,60,41,36,31,27,69,36,18,0.00,40.00,12,5,17,0.00
2013-5-7,82,64,44,38,33,26,68,35,14,0.00,40.00,18,6,25,0.00
2013-5-8,72,62,50,40,38,30,58,41,28,0.00,40.00,17,7,25,0.00
2013-5-9,76,61,45,47,39,36,74,47,24,0.00,40.00,11,5,19,0.00
2013-5-10,71,60,47,44,35,23,74,42,23,0.00,40.00,21,9,33,0.00
2013-5-11,80,62,40,38,30,24,56,32,19,0.00,40.00,12,4,19,0.00
2013-5-12,91,74,56,42,37,26,48,28,10,0.00,40.00,16,6,30,0.00
2013-5-13,93,77,61,44,38,27,48,27,9,0.00,40.00,17,5,29,0.00
2013-5-14,84,70,58,46,36,27,63,31,15,0.00,40.00,23,7,36,0.00
2013-5-15,76,65,50,42,28,20,45,25,19,0.00,40.00,15,6,19,0.00
2013-5-16,71,60,55,53,47,43,90,63,39,0.00,40.00,13,6,24,0.14
2013-5-17,61,56,53,56,52,49,97,86,73,0.00,40.00,8,2,12,0.28
2013-5-18,62,56,53,55,53,50,97,90,74,0.00,40.00,13,2,19,0.42
2013-5-19,55,53,51,52,51,49,96,91,86,0.00,40.00,16,6,29,0.70
2013-5-20,67,57,51,50,43,23,91,63,19,0.00,40.00,20,9,32,0.00
2013-5-21,68,56,43,45,40,31,92,59,26,0.00,40.00,21,7,30,0.00
2013-5-22,67,55,46,47,44,43,87,68,47,0.00,40.00,28,15,39,0.00
2013-5-23,72,60,54,54,47,44,88,62,42,0.00,40.00,23,13,32,0.00
2013-5-24,74,62,52,52,38,27,89,47,18,0.00,40.00,17,7,28,0.00
2013-5-25,78,64,48,44,39,35,73,43,24,0.00,40.00,17,6,25,0.00
2013-5-26,78,63,53,57,48,40,83,59,35,0.00,40.00,16,5,29,0.00
2013-5-27,71,58,52,52,48,40,86,69,43,0.00,40.00,24,4,37,0.00
2013-5-28,72,60,49,52,46,41,93,64,34,0.00,40.00,13,4,21,0.00
2013-5-29,56,54,53,53,52,50,97,91,84,0.00,40.00,12,3,19,1.08
2013-5-30,56,52,50,52,48,45,96,85,68,0.00,40.00,20,8,38,0.56
2013-5-31,57,52,48,46,42,40,87,69,55,0.00,40.00,24,12,42,0.00
2013-6-1,73,60,48,47,43,38,87,57,32,0.00,40.00,13,5,20,0.00
2013-6-2,76,65,54,53,47,43,81,55,32,0.00,40.00,18,8,26,0.00
2013-6-3,62,54,47,53,42,37,90,64,40,0.00,40.00,24,13,42,0.14
2013-6-4,56,49,43,43,39,37,83,69,54,0.00,40.00,12,5,19,0.00
2013-6-5,71,57,40,44,39,32,92,56,24,0.00,40.00,13,4,18,0.00
2013-6-6,82,65,48,52,46,40,85,53,25,0.00,40.00,16,6,22,0.00
2013-6-7,87,70,53,56,48,37,89,51,18,0.00,40.00,15,4,26,0.00
2013-6-8,80,70,62,47,44,37,56,39,23,0.00,40.00,18,9,31,0.00
2013-6-9,86,71,52,52,47,40,84,47,23,0.00,40.00,14,5,22,0.00
2013-6-10,80,68,56,55,48,40,75,51,26,0.00,40.00,16,7,29,0.00
2013-6-11,83,66,58,62,56,51,91,70,49,0.00,40.00,25,7,36,0.14
2013-6-12,75,64,55,61,57,53,93,78,57,0.00,40.00,27,6,41,0.00
2013-6-13,80,68,53,59,54,48,91,63,34,0.00,40.00,25,9,54,0.14
2013-6-14,70,61,51,50,41,31,86,51,25,0.00,40.00,22,8,36,0.00
2013-6-15,81,64,47,45,38,27,78,43,16,0.00,40.00,10,4,17,0.00
2013-6-16,78,67,51,49,45,38,82,48,29,0.00,40.00,13,7,19,0.00
2013-6-17,81,69,56,54,50,47,76,52,34,0.00,40.00,17,8,25,0.00
2013-6-18,91,74,60,60,52,44,70,48,22,0.00,40.00,16,5,25,0.00
2013-6-19,88,73,58,57,50,33,73,47,28,0.00,40.00,23,10,46,0.00
2013-6-20,79,66,54,39,31,24,41,27,14,0.00,40.00,16,6,22,0.00
2013-6-21,74,64,57,50,45,37,77,50,35,0.00,40.00,23,9,34,0.00
2013-6-22,70,59,55,52,49,43,87,70,51,0.00,40.00,17,5,36,0.00
2013-6-23,82,65,49,49,45,40,89,53,24,0.00,40.00,13,6,19,0.00
2013-6-24,88,72,55,57,50,41,78,48,19,0.00,40.00,16,4,35,0.00
2013-6-25,86,75,64,56,46,36,73,38,18,0.00,40.00,14,5,33,0.00
2013-6-26,85,74,65,61,50,45,79,44,26,0.00,40.00,14,5,25,0.00
2013-6-27,90,75,61,61,56,50,87,55,26,0.00,40.00,15,5,24,0.00
2013-6-28,93,78,62,58,54,50,77,47,24,0.00,40.00,14,5,22,0.00
2013-6-29,89,76,64,62,56,53,88,52,31,0.00,40.00,24,7,37,0.00
2013-6-30,90,77,63,64,59,54,88,56,31,0.00,40.00,12,5,21,0.00
2013-7-1,92,79,65,60,56,51,73,47,26,0.00,40.00,11,5,16,0.00
2013-7-2,95,80,64,60,54,47,76,43,21,0.00,40.00,13,5,19,0.00
2013-7-3,100,84,65,59,52,40,69,37,13,0.00,40.00,14,6,24,0.00
2013-7-4,91,79,71,67,61,54,74,55,29,0.00,40.00,22,7,32,0.00
2013-7-5,82,72,64,62,58,54,88,62,39,0.00,40.00,16,5,29,0.00
2013-7-6,84,72,62,59,55,49,85,57,31,0.00,40.00,19,7,29,0.00
2013-7-7,86,72,61,59,55,46,79,57,29,0.00,40.00,19,4,29,0.00
2013-7-8,92,72,62,62,57,53,93,61,29,0.00,40.00,22,4,43,0.47
2013-7-9,82,72,61,62,56,47,90,60,34,0.00,40.00,14,6,22,0.00
2013-7-10,97,78,59,58,48,34,82,44,11,0.00,40.00,17,6,26,0.00
2013-7-11,96,83,70,58,48,38,58,32,14,0.00,40.00,16,7,29,0.00
2013-7-12,92,80,69,59,50,41,64,37,18,0.00,40.00,17,6,26,0.00
2013-7-13,87,73,61,59,55,52,76,55,31,0.00,40.00,21,8,32,0.14
2013-7-14,85,73,60,56,51,41,75,49,31,0.00,40.00,18,9,26,0.00
2013-7-15,100,81,62,60,50,30,80,42,9,0.00,40.00,14,5,22,0.00
2013-7-16,84,66,62,55,49,44,74,54,26,0.00,40.00,21,8,33,0.00
2013-7-17,84,70,60,64,59,55,85,68,46,0.00,40.00,8,3,13,0.00
2013-7-18,95,79,62,60,49,22,81,42,8,0.00,40.00,15,6,24,0.00
2013-7-19,95,79,62,53,45,27,60,33,10,0.00,40.00,14,5,21,0.00
2013-7-20,92,78,61,52,45,38,57,34,15,0.00,40.00,12,5,19,0.00
2013-7-21,94,79,60,49,42,23,63,31,8,0.00,40.00,15,7,22,0.00
2013-7-22,96,80,64,54,46,22,60,34,7,0.00,40.00,16,6,26,0.00
2013-7-23,94,78,61,55,48,36,60,38,14,0.00,40.00,17,6,26,0.00
2013-7-24,96,80,62,57,49,40,70,38,15,0.00,40.00,23,7,33,0.00
2013-7-25,85,74,64,55,53,50,68,49,31,0.00,40.00,25,10,39,0.00
2013-7-26,87,71,57,54,50,46,71,50,28,0.00,40.00,16,9,25,0.00
2013-7-27,90,75,60,55,48,40,65,40,18,0.00,40.00,20,4,33,0.00
2013-7-28,81,72,62,56,52,46,77,50,35,0.00,40.00,20,6,33,0.00
2013-7-29,76,67,59,56,52,49,84,61,44,0.00,40.00,19,8,28,0.00
2013-7-30,79,68,59,60,54,51,86,62,40,0.00,40.00,13,6,19,0.00
2013-7-31,90,72,54,58,51,42,91,55,20,0.00,40.00,12,4,17,0.00
2013-8-1,83,73,62,57,52,49,83,50,33,0.00,40.00,27,9,40,0.00
2013-8-2,75,66,60,60,58,55,91,74,52,0.00,40.00,15,8,22,0.00
2013-8-3,83,67,58,62,59,56,94,76,47,0.00,40.00,16,6,26,0.00
2013-8-4,85,72,60,60,57,54,86,63,34,0.00,40.00,16,5,24,0.00
2013-8-5,93,75,63,60,52,37,78,48,15,0.00,40.00,23,5,44,0.00
2013-8-6,86,73,60,53,49,42,76,45,22,0.00,40.00,14,5,24,0.00
2013-8-7,89,72,58,53,49,42,71,46,20,0.00,40.00,20,5,29,0.00
2013-8-8,84,71,57,55,52,50,79,54,32,0.00,40.00,19,8,26,0.00
2013-8-9,78,68,60,62,55,49,82,64,40,0.00,40.00,18,8,30,0.00
2013-8-10,84,71,58,61,56,44,95,65,26,0.00,40.00,12,4,16,0.00
2013-8-11,88,74,58,56,51,43,74,47,22,0.00,40.00,13,4,18,0.00
2013-8-12,90,75,58,57,51,48,69,46,25,0.00,40.00,23,6,33,0.00
2013-8-13,86,74,61,56,51,43,69,46,27,0.00,40.00,17,6,26,0.00
2013-8-14,90,74,59,51,47,36,67,42,15,0.00,40.00,19,5,24,0.00
2013-8-15,93,76,58,55,48,27,75,42,9,0.00,40.00,12,5,17,0.00
2013-8-16,97,78,60,52,46,37,64,36,13,0.00,40.00,14,5,22,0.00
2013-8-17,92,79,62,50,45,38,48,32,18,0.00,40.00,12,5,17,0.00
2013-8-18,91,79,64,52,48,45,57,35,21,0.00,40.00,14,6,22,0.00
2013-8-19,98,80,62,52,44,22,63,32,6,0.00,40.00,12,4,21,0.00
2013-8-20,96,80,63,47,39,31,50,27,10,0.00,40.00,10,3,16,0.00
2013-8-21,85,75,63,49,45,39,55,36,23,0.00,40.00,16,7,23,0.00
2013-8-22,91,77,61,56,52,46,67,44,27,0.00,40.00,12,5,17,0.00
2013-8-23,99,79,67,55,51,34,62,41,10,0.00,40.00,22,5,40,0.00
2013-8-24,91,78,70,58,51,41,59,42,21,0.00,40.00,13,4,23,0.00
2013-8-25,96,80,67,54,47,28,58,35,9,0.00,40.00,10,3,16,0.00
2013-8-26,96,84,72,53,46,35,50,28,12,0.00,40.00,15,4,23,0.00
2013-8-27,93,82,68,52,48,43,53,32,18,0.00,40.00,13,5,22,0.00
2013-8-28,96,80,67,55,52,46,60,39,20,0.00,40.00,16,4,31,0.00
2013-8-29,93,75,61,60,54,44,75,50,21,0.00,40.00,17,4,33,0.00
2013-8-30,97,78,63,58,51,36,78,44,12,0.00,40.00,10,4,19,0.00
2013-8-31,85,75,65,51,44,37,57,34,19,0.00,40.00,12,5,21,0.00
2013-9-1,90,72,54,49,44,39,61,38,21,0.00,40.00,9,4,14,0.00
2013-9-2,91,73,57,63,49,43,72,45,21,0.00,40.00,14,4,26,0.00
2013-9-3,95,80,64,63,54,46,78,45,21,0.00,40.00,10,4,14,0.00
2013-9-4,97,80,70,60,55,50,58,43,22,0.00,40.00,16,5,25,0.00
2013-9-5,99,77,62,64,58,54,80,54,24,0.00,40.00,17,4,39,0.00
2013-9-6,94,76,64,65,61,54,83,62,34,0.00,40.00,19,5,35,0.24
2013-9-7,91,73,55,63,59,50,97,63,27,0.00,40.00,28,6,49,0.00
2013-9-8,80,67,60,64,58,43,93,76,27,0.00,40.00,26,4,52,0.00
2013-9-9,78,67,58,56,51,45,90,58,33,0.00,40.00,12,4,27,0.00
2013-9-10,84,68,53,52,46,34,88,51,17,0.00,40.00,10,4,12,0.00
2013-9-11,83,68,53,52,48,44,80,51,27,0.00,40.00,13,5,20,0.00
2013-9-12,85,69,56,54,50,47,76,51,28,0.00,40.00,11,4,18,0.00
2013-9-13,79,68,60,60,55,51,93,63,44,0.00,40.00,10,4,16,0.14
2013-9-14,66,62,59,63,60,54,98,91,71,0.00,40.00,10,4,16,0.80
2013-9-15,76,66,57,60,54,51,81,67,47,0.00,40.00,19,9,27,0.00
2013-9-16,87,71,56,59,56,53,92,62,32,0.00,40.00,11,3,14,0.00
2013-9-17,77,66,60,57,55,50,87,68,42,0.00,40.00,12,4,18,0.00
2013-9-18,71,61,56,57,48,40,90,62,39,0.00,40.00,17,7,28,0.00
2013-9-19,67,56,49,44,40,37,70,56,34,0.00,40.00,12,4,23,0.00
2013-9-20,79,60,42,46,40,33,91,55,21,0.00,40.00,15,2,20,0.00
2013-9-21,89,66,44,47,41,32,83,47,13,0.00,40.00,10,3,16,0.00
2013-9-22,75,65,57,48,43,39,65,46,29,0.00,40.00,14,5,25,0.00
2013-9-23,73,63,54,47,38,28,65,43,19,0.00,40.00,19,7,36,0.00
2013-9-24,78,60,44,44,39,32,81,49,19,0.00,40.00,17,4,30,0.00
2013-9-25,56,51,48,49,45,39,97,81,55,0.00,40.00,11,5,17,0.42
2013-9-26,51,46,41,47,39,36,97,78,60,0.00,40.00,14,4,23,0.28
2013-9-27,55,46,42,41,38,35,91,73,50,0.00,40.00,13,5,19,0.00
2013-9-28,68,54,43,39,37,36,80,55,32,0.00,40.00,15,9,25,0.00
2013-9-29,74,60,49,41,38,36,70,44,25,0.00,40.00,25,8,40,0.00
2013-9-30,74,54,45,46,36,22,85,55,24,0.00,40.00,26,8,45,0.00
2013-10-1,70,56,40,37,32,25,70,40,23,0.00,40.00,20,6,32,0.00
2013-10-2,60,52,46,42,34,26,83,51,29,0.00,40.00,16,6,23,0.00
2013-10-3,46,40,34,43,38,34,97,92,83,0.00,40.00,22,12,32,1.40
2013-10-4,46,38,33,34,32,27,98,78,49,0.00,40.00,14,5,24,0.00
2013-10-5,55,41,28,37,31,25,91,69,46,0.00,40.00,16,8,25,0.00
2013-10-6,67,53,42,40,35,29,66,51,31,0.00,40.00,14,9,23,0.00
2013-10-7,66,55,42,43,39,35,78,57,38,0.00,40.00,14,6,23,0.00
2013-10-8,63,52,44,42,37,32,84,59,33,0.00,40.00,13,4,20,0.00
2013-10-9,57,47,38,42,37,33,88,70,49,0.00,40.00,12,3,16,0.00
2013-10-10,56,46,37,48,41,35,96,84,64,0.00,40.00,8,2,14,0.00
2013-10-11,53,46,36,45,37,31,93,70,43,0.00,40.00,17,5,30,0.00
2013-10-12,54,42,31,39,34,29,95,75,44,0.00,40.00,11,5,17,0.00
2013-10-13,44,40,34,42,35,31,95,82,64,0.00,40.00,14,3,22,0.00
2013-10-14,48,42,38,40,34,27,95,77,46,0.00,40.00,13,6,22,0.14
2013-10-15,52,42,34,36,33,28,94,71,40,0.00,40.00,12,5,19,0.00
2013-10-16,55,43,37,37,32,27,90,65,34,0.00,40.00,23,10,35,0.00
2013-10-17,48,40,36,39,35,32,96,84,59,0.00,40.00,16,3,28,0.00
2013-10-18,58,46,35,36,31,26,86,59,30,0.00,40.00,14,6,24,0.00
2013-10-19,62,51,40,38,31,28,63,47,30,0.00,40.00,14,8,28,0.00
2013-10-20,57,49,43,38,35,30,76,57,39,0.00,40.00,16,6,27,0.00
2013-10-21,63,52,44,39,37,35,80,57,35,0.00,40.00,13,5,24,0.00
2013-10-22,67,51,38,41,39,35,88,65,35,0.00,40.00,9,4,14,0.00
2013-10-23,59,47,36,42,38,34,91,73,49,0.00,40.00,13,4,20,0.00
2013-10-24,60,46,34,43,39,33,95,78,51,0.00,40.00,7,3,11,0.00
2013-10-25,71,53,40,42,37,34,92,59,27,0.00,40.00,12,5,19,0.00
2013-10-26,70,50,34,41,35,31,91,61,27,0.00,40.00,15,6,22,0.00
2013-10-27,62,47,36,37,33,26,84,60,26,0.00,40.00,25,8,36,0.00
2013-10-28,36,29,24,32,28,24,99,95,77,0.00,40.00,22,13,32,0.00
2013-10-29,35,29,25,29,26,25,99,90,73,0.00,40.00,8,2,12,0.00
2013-10-30,53,36,23,38,30,23,98,81,52,0.00,40.00,9,3,14,0.00
2013-10-31,57,46,34,36,32,28,89,60,40,0.00,40.00,22,8,46,0.00
2013-11-1,57,47,36,30,28,25,72,48,29,0.00,40.00,14,7,25,0.00
2013-11-2,58,42,31,38,32,27,86,69,44,0.00,40.00,17,3,29,0.00
2013-11-3,49,42,34,36,27,14,79,55,26,0.00,40.00,16,6,30,0.00
2013-11-4,38,32,29,30,26,22,95,77,62,0.00,40.00,10,4,13,0.00
2013-11-5,44,33,24,28,23,16,96,71,32,0.00,40.00,11,5,14,0.00
2013-11-6,51,40,32,31,24,20,71,52,32,0.00,40.00,20,5,36,0.00
2013-11-7,53,42,31,33,28,24,74,60,44,0.00,40.00,7,3,11,0.00
2013-11-8,53,48,42,37,27,23,74,45,30,0.00,40.00,20,10,38,0.00
2013-11-9,50,42,33,28,24,21,70,48,35,0.00,40.00,8,3,12,0.00
2013-11-10,46,37,27,32,28,22,85,70,50,0.00,40.00,19,7,25,0.00
2013-11-11,31,24,19,29,22,18,96,92,81,0.00,40.00,11,4,16,0.00
2013-11-12,62,40,17,41,27,16,96,67,33,0.00,40.00,12,4,19,0.00
2013-11-13,61,52,44,38,32,24,63,46,34,0.00,40.00,19,6,34,0.00
2013-11-14,50,40,31,30,26,24,81,58,42,0.00,40.00,9,2,13,0.00
2013-11-15,51,38,25,30,22,18,90,58,27,0.00,40.00,16,5,28,0.00
2013-11-16,50,41,37,31,27,23,74,58,39,0.00,40.00,14,4,29,0.00
2013-11-17,46,38,32,28,21,16,67,51,30,0.00,40.00,18,6,32,0.00
2013-11-18,61,41,25,29,23,20,79,54,20,0.00,40.00,14,4,23,0.00
2013-11-19,63,49,30,30,27,20,65,43,27,0.00,40.00,19,5,25,0.00
2013-11-20,29,17,10,19,12,4,91,78,65,0.00,40.00,22,10,33,0.00
2013-11-21,23,12,1,12,6,-3,87,75,61,0.00,40.00,15,6,23,0.00
2013-11-22,36,24,18,15,11,7,71,57,40,0.00,40.00,17,8,31,0.00
2013-11-23,40,26,15,17,12,8,75,55,36,0.00,40.00,12,7,21,0.00
2013-11-24,48,36,26,22,17,12,69,48,33,0.00,40.00,16,8,26,0.00
2013-11-25,47,33,25,27,22,19,81,65,42,0.00,40.00,7,2,10,0.00
2013-11-26,49,35,26,28,25,22,85,66,45,0.00,40.00,10,3,18,0.00
2013-11-27,55,42,27,28,25,23,83,53,35,0.00,40.00,16,7,23,0.00
2013-11-28,43,31,21,29,24,19,91,76,54,0.00,40.00,8,3,10,0.00
2013-11-29,60,43,31,31,27,25,80,56,27,0.00,40.00,11,5,16,0.00
2013-11-30,53,42,35,32,29,26,72,60,41,0.00,40.00,8,3,12,0.00
2013-12-1,49,42,36,33,30,28,74,61,48,0.00,40.00,8,4,16,0.00
2013-12-2,46,36,21,38,33,20,99,88,59,0.00,40.00,16,6,26,0.80
2013-12-3,21,13,7,20,12,6,96,93,92,0.00,40.00,13,5,20,0.00
2013-12-4,10,6,0,7,2,-7,92,84,62,0.00,40.00,8,3,13,0.00
2013-12-5,4,-6,-14,-3,-10,-17,86,79,69,0.00,40.00,6,2,9,0.00
2013-12-6,-5,-11,-17,-8,-15,-21,85,82,73,0.00,40.00,12,4,16,0.00
2013-12-7,-10,-16,-20,-14,-20,-24,83,82,81,0.00,40.00,7,3,10,0.00
2013-12-8,7,-3,-18,1,-8,-22,83,78,69,0.00,40.00,13,6,22,0.00
2013-12-9,20,12,-1,10,3,-6,83,68,59,0.00,40.00,20,11,36,0.00
2013-12-10,31,22,12,23,15,9,94,76,57,0.00,40.00,16,8,29,0.00
2013-12-11,30,19,5,17,11,3,93,73,53,0.00,40.00,17,7,26,0.00
2013-12-12,40,34,27,23,19,16,61,54,47,0.00,40.00,13,8,19,0.00
2013-12-13,44,36,30,33,26,20,77,64,53,0.00,40.00,10,4,19,0.00
2013-12-14,45,36,27,28,25,20,78,63,49,0.00,40.00,18,8,31,0.00
2013-12-15,54,43,35,27,25,22,65,50,29,0.00,40.00,21,7,32,0.00
2013-12-16,55,42,32,29,25,23,76,52,31,0.00,40.00,12,4,21,0.00
2013-12-17,51,39,25,28,26,22,92,62,38,0.00,40.00,15,6,22,0.00
2013-12-18,47,40,26,30,27,24,95,63,41,0.00,40.00,19,8,26,0.00
2013-12-19,26,8,-2,24,5,-4,92,86,70,0.00,40.00,22,7,30,0.00
2013-12-20,27,19,1,16,10,-2,87,69,52,0.00,40.00,14,7,26,0.00
2013-12-21,30,25,16,27,20,13,92,83,70,0.00,40.00,10,3,13,0.00
2013-12-22,16,10,-3,13,7,-6,93,89,81,0.00,40.00,12,5,17,0.00
2013-12-23,42,18,-6,34,12,-10,95,77,58,0.00,40.00,16,7,30,0.14
2013-12-24,42,39,33,36,25,19,92,58,41,0.00,40.00,17,9,31,0.38
2013-12-25,38,31,20,22,18,14,79,58,47,0.00,40.00,18,8,30,0.00
2013-12-26,47,38,30,27,22,19,64,52,45,0.00,40.00,20,9,31,0.00
2013-12-27,54,44,39,30,27,25,59,50,39,0.00,40.00,17,9,26,0.00
2013-12-28,48,25,13,29,14,5,77,63,43,0.00,40.00,23,7,33,0.00
2013-12-29,41,25,14,24,16,8,86,66,50,0.00,40.00,15,5,22,0.00
2013-12-30,46,39,34,27,24,24,65,55,46,0.00,40.00,13,6,24,0.00
2013-12-31,47,39,33,36,29,24,97,68,49,0.00,40.00,12,5,24,0.28
2014-1-1,38,30,23,35,28,21,100,93,75,0.00,40.00,11,3,18,0.14
2014-1-2,41,31,19,26,22,17,94,70,53,0.00,40.00,18,9,28,0.00